<?xml version='1.0' encoding='UTF-8'?><gpx version="1.1" creator="JPX - https://github.com/jenetics/jpx" xmlns="http://www.topografix.com/GPX/1/1"><trk><trkseg><trkpt lat="45.90049486438186" lon="10.191767558890099"><ele>251.0</ele><time>2026-05-03T20:20:16Z</time></trkpt><trkpt lat="45.900595011232326" lon="10.191854964951231"><ele>251.00000000000003</ele><time>2026-05-03T20:20:18Z</time></trkpt><trkpt lat="45.90067980436206" lon="10.191995119539294"><ele>251.00000000000003</ele><time>2026-05-03T20:20:20Z</time></trkpt><trkpt lat="45.900739123861854" lon="10.192032649626682"><ele>251.0</ele><time>2026-05-03T20:20:21Z</time></trkpt><trkpt lat="45.90080113157402" lon="10.192089765441958"><ele>251.0</ele><time>2026-05-03T20:20:22Z</time></trkpt><trkpt lat="45.900862966843754" lon="10.192140497102645"><ele>253.66666666666669</ele><time>2026-05-03T20:20:23Z</time></trkpt><trkpt lat="45.900930375081735" lon="10.192210756942538"><ele>256.33333333333337</ele><time>2026-05-03T20:20:24Z</time></trkpt><trkpt lat="45.900995466854404" lon="10.192259912595723"><ele>259.0</ele><time>2026-05-03T20:20:25Z</time></trkpt><trkpt lat="45.90107019257096" lon="10.19229296719718"><ele>261.6666666666667</ele><time>2026-05-03T20:20:26Z</time></trkpt><trkpt lat="45.90113279760923" lon="10.192367717742219"><ele>264.3333333333333</ele><time>2026-05-03T20:20:27Z</time></trkpt><trkpt lat="45.90121267981279" lon="10.192411690477446"><ele>267.0</ele><time>2026-05-03T20:20:28Z</time></trkpt><trkpt lat="45.9012705083184" lon="10.192493872324071"><ele>267.0</ele><time>2026-05-03T20:20:29Z</time></trkpt><trkpt lat="45.90132796527557" lon="10.192560204662492"><ele>267.0</ele><time>2026-05-03T20:20:30Z</time></trkpt><trkpt lat="45.90139372623993" lon="10.192650671017537"><ele>267.0</ele><time>2026-05-03T20:20:32Z</time></trkpt><trkpt lat="45.90149015704528" lon="10.192633977221924"><ele>267.0</ele><time>2026-05-03T20:20:34Z</time></trkpt><trkpt lat="45.901556159757405" lon="10.19253067779766"><ele>267.0</ele><time>2026-05-03T20:20:36Z</time></trkpt><trkpt lat="45.90158011494154" lon="10.192440667302133"><ele>267.0</ele><time>2026-05-03T20:20:37Z</time></trkpt><trkpt lat="45.9015716927016" lon="10.192342451396796"><ele>267.5</ele><time>2026-05-03T20:20:38Z</time></trkpt><trkpt lat="45.901594100553105" lon="10.192257663288778"><ele>268.0</ele><time>2026-05-03T20:20:39Z</time></trkpt><trkpt lat="45.901599175183044" lon="10.192113004251079"><ele>268.5</ele><time>2026-05-03T20:20:41Z</time></trkpt><trkpt lat="45.901658851647795" lon="10.192001345286231"><ele>269.0</ele><time>2026-05-03T20:20:43Z</time></trkpt><trkpt lat="45.90174065660543" lon="10.192038913047874"><ele>269.5</ele><time>2026-05-03T20:20:45Z</time></trkpt><trkpt lat="45.90180221434889" lon="10.192097125560004"><ele>270.0</ele><time>2026-05-03T20:20:48Z</time></trkpt><trkpt lat="45.90180797522448" lon="10.192262390530798"><ele>272.8</ele><time>2026-05-03T20:20:50.001Z</time></trkpt><trkpt lat="45.90185309975187" lon="10.192405191731767"><ele>275.6</ele><time>2026-05-03T20:20:52.001Z</time></trkpt><trkpt lat="45.9018969336892" lon="10.19253595470582"><ele>278.4</ele><time>2026-05-03T20:20:54.001Z</time></trkpt><trkpt lat="45.90188994806509" lon="10.192672083323481"><ele>281.2</ele><time>2026-05-03T20:20:56.001Z</time></trkpt><trkpt lat="45.90195419918737" lon="10.19279771006928"><ele>284.0</ele><time>2026-05-03T20:20:58.001Z</time></trkpt><trkpt lat="45.90198002946505" lon="10.192917661349842"><ele>284.0</ele><time>2026-05-03T20:21:00.001Z</time></trkpt><trkpt lat="45.90202498041672" lon="10.193014451735195"><ele>284.0</ele><time>2026-05-03T20:21:02.001Z</time></trkpt><trkpt lat="45.90207766053505" lon="10.193111985132669"><ele>284.0</ele><time>2026-05-03T20:21:05.001Z</time></trkpt><trkpt lat="45.902130952408484" lon="10.193245024406997"><ele>284.0</ele><time>2026-05-03T20:21:07.001Z</time></trkpt><trkpt lat="45.902169117843094" lon="10.193366323542959"><ele>284.0</ele><time>2026-05-03T20:21:09.001Z</time></trkpt><trkpt lat="45.90219380340589" lon="10.193496617100413"><ele>283.5</ele><time>2026-05-03T20:21:11.001Z</time></trkpt><trkpt lat="45.90221639851936" lon="10.193597133735889"><ele>283.0</ele><time>2026-05-03T20:21:14.001Z</time></trkpt><trkpt lat="45.902307940947715" lon="10.193570535505199"><ele>282.5</ele><time>2026-05-03T20:21:15.001Z</time></trkpt><trkpt lat="45.90236708394768" lon="10.193539148718001"><ele>282.0</ele><time>2026-05-03T20:21:16.001Z</time></trkpt><trkpt lat="45.902458974896184" lon="10.193492741504325"><ele>281.5</ele><time>2026-05-03T20:21:18.001Z</time></trkpt><trkpt lat="45.90255695749661" lon="10.193399571886742"><ele>281.0</ele><time>2026-05-03T20:21:20.001Z</time></trkpt><trkpt lat="45.9026694138977" lon="10.193298829640659"><ele>281.0</ele><time>2026-05-03T20:21:22.001Z</time></trkpt><trkpt lat="45.90270476525612" lon="10.19322215191608"><ele>281.0</ele><time>2026-05-03T20:21:23.001Z</time></trkpt><trkpt lat="45.90279465658932" lon="10.193105748219256"><ele>281.0</ele><time>2026-05-03T20:21:25.001Z</time></trkpt><trkpt lat="45.902880173401655" lon="10.192988702188257"><ele>281.0</ele><time>2026-05-03T20:21:27.001Z</time></trkpt><trkpt lat="45.90297540461177" lon="10.192878650072057"><ele>281.0</ele><time>2026-05-03T20:21:29.001Z</time></trkpt><trkpt lat="45.90307165258988" lon="10.19275372359796"><ele>282.5</ele><time>2026-05-03T20:21:31.002Z</time></trkpt><trkpt lat="45.90312701028928" lon="10.19268628783454"><ele>284.0</ele><time>2026-05-03T20:21:32.002Z</time></trkpt><trkpt lat="45.90319029958006" lon="10.192612088687339"><ele>285.5</ele><time>2026-05-03T20:21:33.002Z</time></trkpt><trkpt lat="45.90324124962753" lon="10.19255330863544"><ele>287.0</ele><time>2026-05-03T20:21:34.002Z</time></trkpt><trkpt lat="45.90329522109455" lon="10.192480286602029"><ele>288.5</ele><time>2026-05-03T20:21:35.002Z</time></trkpt><trkpt lat="45.903344241487254" lon="10.192411016254933"><ele>290.0</ele><time>2026-05-03T20:21:36.002Z</time></trkpt><trkpt lat="45.90344492160507" lon="10.1923288611074"><ele>292.5</ele><time>2026-05-03T20:21:38.002Z</time></trkpt><trkpt lat="45.903552457503466" lon="10.19236573842817"><ele>295.0</ele><time>2026-05-03T20:21:40.002Z</time></trkpt><trkpt lat="45.90361448158551" lon="10.192395840719266"><ele>297.5</ele><time>2026-05-03T20:21:41.002Z</time></trkpt><trkpt lat="45.903678808957416" lon="10.192437254303213"><ele>300.0</ele><time>2026-05-03T20:21:42.002Z</time></trkpt><trkpt lat="45.903794369462474" lon="10.192464322630997"><ele>302.5</ele><time>2026-05-03T20:21:44.002Z</time></trkpt><trkpt lat="45.9038727264121" lon="10.192440821212452"><ele>305.0</ele><time>2026-05-03T20:21:46.002Z</time></trkpt><trkpt lat="45.90393055929657" lon="10.192480771228736"><ele>305.0</ele><time>2026-05-03T20:21:53.002Z</time></trkpt><trkpt lat="45.9040177404191" lon="10.192528839373233"><ele>305.0</ele><time>2026-05-03T20:21:58.002Z</time></trkpt><trkpt lat="45.90409779444159" lon="10.192553393893169"><ele>305.0</ele><time>2026-05-03T20:22:03.002Z</time></trkpt><trkpt lat="45.90416175818258" lon="10.19261207946924"><ele>305.0</ele><time>2026-05-03T20:22:07.002Z</time></trkpt><trkpt lat="45.90424801183119" lon="10.192639583052506"><ele>305.0</ele><time>2026-05-03T20:22:10.002Z</time></trkpt><trkpt lat="45.9042894593299" lon="10.192710484809716"><ele>305.0</ele><time>2026-05-03T20:22:12.003Z</time></trkpt><trkpt lat="45.904365308562745" lon="10.192837710640644"><ele>308.7142857142857</ele><time>2026-05-03T20:22:15.003Z</time></trkpt><trkpt lat="45.90442523276643" lon="10.192899121667661"><ele>312.4285714285714</ele><time>2026-05-03T20:22:18.003Z</time></trkpt><trkpt lat="45.904479563150836" lon="10.1929799615599"><ele>316.1428571428571</ele><time>2026-05-03T20:22:21Z</time></trkpt><trkpt lat="45.90452239649552" lon="10.193061214322436"><ele>319.8571428571429</ele><time>2026-05-03T20:22:24Z</time></trkpt><trkpt lat="45.904556725075174" lon="10.193154000097028"><ele>323.57142857142856</ele><time>2026-05-03T20:22:27Z</time></trkpt><trkpt lat="45.904611792530716" lon="10.193222699947198"><ele>327.2857142857143</ele><time>2026-05-03T20:22:30Z</time></trkpt><trkpt lat="45.90465036263158" lon="10.193305660778138"><ele>331.0</ele><time>2026-05-03T20:22:33Z</time></trkpt><trkpt lat="45.9046842573172" lon="10.193408104399424"><ele>331.0</ele><time>2026-05-03T20:22:36Z</time></trkpt><trkpt lat="45.904737553200626" lon="10.193490768613133"><ele>331.0</ele><time>2026-05-03T20:22:39Z</time></trkpt><trkpt lat="45.904778058417186" lon="10.193604180266394"><ele>331.0</ele><time>2026-05-03T20:22:42Z</time></trkpt><trkpt lat="45.904793418817974" lon="10.19371493600121"><ele>331.0</ele><time>2026-05-03T20:22:45Z</time></trkpt><trkpt lat="45.904819611330204" lon="10.193824819651617"><ele>331.0</ele><time>2026-05-03T20:22:48Z</time></trkpt><trkpt lat="45.9048504837035" lon="10.19391830840684"><ele>331.0</ele><time>2026-05-03T20:22:52Z</time></trkpt><trkpt lat="45.9048631786716" lon="10.1940198058528"><ele>330.14285714285717</ele><time>2026-05-03T20:23:25.001Z</time></trkpt><trkpt lat="45.90489049658442" lon="10.194115230828801"><ele>329.2857142857143</ele><time>2026-05-03T20:23:28.001Z</time></trkpt><trkpt lat="45.90492544765004" lon="10.194194458969013"><ele>328.42857142857144</ele><time>2026-05-03T20:23:31.001Z</time></trkpt><trkpt lat="45.904978319443856" lon="10.194256496967402"><ele>327.57142857142856</ele><time>2026-05-03T20:23:35.002Z</time></trkpt><trkpt lat="45.905043984971876" lon="10.194321907906103"><ele>326.7142857142857</ele><time>2026-05-03T20:23:39.002Z</time></trkpt><trkpt lat="45.90509758970938" lon="10.194390683093514"><ele>325.85714285714283</ele><time>2026-05-03T20:23:43.002Z</time></trkpt><trkpt lat="45.905158787737115" lon="10.194458974628574"><ele>325.0</ele><time>2026-05-03T20:23:47.002Z</time></trkpt><trkpt lat="45.90518718871738" lon="10.194545413088514"><ele>330.3333333333333</ele><time>2026-05-03T20:23:50.002Z</time></trkpt><trkpt lat="45.90525273080111" lon="10.194618253292289"><ele>335.66666666666663</ele><time>2026-05-03T20:23:54.002Z</time></trkpt><trkpt lat="45.90529887157076" lon="10.194704931796721"><ele>341.0</ele><time>2026-05-03T20:23:58.002Z</time></trkpt><trkpt lat="45.90535852098772" lon="10.194772231446334"><ele>346.3333333333333</ele><time>2026-05-03T20:24:03.002Z</time></trkpt><trkpt lat="45.90541196344674" lon="10.19482860485636"><ele>351.6666666666667</ele><time>2026-05-03T20:24:06.002Z</time></trkpt><trkpt lat="45.905479893491325" lon="10.194864327154313"><ele>357.0</ele><time>2026-05-03T20:24:10.002Z</time></trkpt><trkpt lat="45.905529906198744" lon="10.19495838369642"><ele>357.0</ele><time>2026-05-03T20:24:14.003Z</time></trkpt><trkpt lat="45.90557269344709" lon="10.195049602202648"><ele>357.0</ele><time>2026-05-03T20:24:18.003Z</time></trkpt><trkpt lat="45.90562624373157" lon="10.195123535108326"><ele>357.0</ele><time>2026-05-03T20:24:22.003Z</time></trkpt><trkpt lat="45.90564875499138" lon="10.195211765408851"><ele>357.0</ele><time>2026-05-03T20:24:26Z</time></trkpt><trkpt lat="45.90568586656155" lon="10.195290888934982"><ele>357.0</ele><time>2026-05-03T20:24:31Z</time></trkpt><trkpt lat="45.90572544688376" lon="10.195375275951266"><ele>357.0</ele><time>2026-05-03T20:24:37Z</time></trkpt><trkpt lat="45.90576282251074" lon="10.195454962450782"><ele>357.0</ele><time>2026-05-03T20:24:43Z</time></trkpt><trkpt lat="45.905799819216234" lon="10.195533841077657"><ele>357.0</ele><time>2026-05-03T20:24:48Z</time></trkpt><trkpt lat="45.90584143909679" lon="10.195622576530903"><ele>357.0</ele><time>2026-05-03T20:24:54Z</time></trkpt><trkpt lat="45.90587730300991" lon="10.19569904000403"><ele>357.0</ele><time>2026-05-03T20:25:00Z</time></trkpt><trkpt lat="45.90592128516406" lon="10.195770104139681"><ele>357.0</ele><time>2026-05-03T20:25:05.001Z</time></trkpt><trkpt lat="45.90595917081235" lon="10.195848956060086"><ele>357.0</ele><time>2026-05-03T20:25:15.001Z</time></trkpt><trkpt lat="45.90602079053629" lon="10.195766846921899"><ele>357.0</ele><time>2026-05-03T20:28:49Z</time></trkpt><trkpt lat="45.90605753324978" lon="10.19569186981804"><ele>357.0</ele><time>2026-05-03T20:29:09Z</time></trkpt><trkpt lat="45.9060565339851" lon="10.195589553694148"><ele>357.0</ele><time>2026-05-03T20:29:15.001Z</time></trkpt><trkpt lat="45.90603035610864" lon="10.195498782439902"><ele>357.0</ele><time>2026-05-03T20:29:19.001Z</time></trkpt><trkpt lat="45.90599136608795" lon="10.195420220745856"><ele>357.0</ele><time>2026-05-03T20:29:24.001Z</time></trkpt><trkpt lat="45.905992532696914" lon="10.19532102034261"><ele>357.0</ele><time>2026-05-03T20:29:30.001Z</time></trkpt><trkpt lat="45.90595664930396" lon="10.19523754723134"><ele>357.0</ele><time>2026-05-03T20:29:38.001Z</time></trkpt><trkpt lat="45.90592289498784" lon="10.195153916891263"><ele>357.0</ele><time>2026-05-03T20:29:46.002Z</time></trkpt><trkpt lat="45.905904962256" lon="10.195055076503024"><ele>357.0</ele><time>2026-05-03T20:29:55.002Z</time></trkpt><trkpt lat="45.90589948753148" lon="10.194964057195428"><ele>357.0</ele><time>2026-05-03T20:30:02.002Z</time></trkpt><trkpt lat="45.905960634050416" lon="10.19500246769196"><ele>405.0</ele><time>2026-05-03T20:31:18.001Z</time></trkpt></trkseg></trk></gpx>